Lady Debora — V2QG7 — position and weather

sailwx.info

Track history (hours):
 
Tides and Currents Weather Stations Pressure Air Temp Water Temp Dewpoint Dewpoint Depression Visibility Wind Speed Wind Dir Waves Ship Positions

Lady Debora

Last reported at 2016-May-04 12:33 UTC. Time now 2016-May-05 08:38 UTC.
Position N 38°43' W 009°50'.

Length 107 m; draft 3.9 m.

Type: Cargo ship. MMSI: 304010760.

Date/timePositionNaut miles runAvg speedWind from/ knotsBaromVisibWave heightAir tempDewpointWater temp
2016-May-04 12:33N 38°43' W 009°50'10 9.5
2016-May-04 11:29N 38°33' W 009°50'12 9.4
2016-May-04 10:15N 38°21' W 009°49'8 9.2
2016-May-04 09:26N 38°14' W 009°49'8 9.3
2016-May-04 08:33N 38°06' W 009°49'9 8.9
2016-May-04 07:33N 37°57' W 009°49'9 9.2
2016-May-04 06:33N 37°48' W 009°48'10 9.5
2016-May-04 05:31N 37°38' W 009°48'9 9.4
2016-May-04 04:31N 37°28' W 009°47'12 9.5
2016-May-04 03:14N 37°16' W 009°47'  
Track history (hours):
 
Tides and Currents Weather Stations Pressure Air Temp Water Temp Dewpoint Dewpoint Depression Visibility Wind Speed Wind Dir Waves Ship Positions

Lady Debora

Last reported at 2016-May-04 12:33 UTC. Time now 2016-May-05 08:38 UTC.
Position N 38°43' W 009°50'.

Length 107 m; draft 3.9 m.

Type: Cargo ship. MMSI: 304010760.

Date/timePositionNaut miles runAvg speedWind from/ knotsBaromVisibWave heightAir tempDewpointWater temp
2016-May-04 12:33N 38°43' W 009°50'10 9.5
2016-May-04 11:29N 38°33' W 009°50'12 9.4
2016-May-04 10:15N 38°21' W 009°49'8 9.2
2016-May-04 09:26N 38°14' W 009°49'8 9.3
2016-May-04 08:33N 38°06' W 009°49'9 8.9
2016-May-04 07:33N 37°57' W 009°49'9 9.2
2016-May-04 06:33N 37°48' W 009°48'10 9.5
2016-May-04 05:31N 37°38' W 009°48'9 9.4
2016-May-04 04:31N 37°28' W 009°47'12 9.5
2016-May-04 03:14N 37°16' W 009°47'  

Dump ship's entire track history